createdAt,value
2019-05-05T00:00:17.392Z,2.20
2019-05-05T00:02:56.601Z,1.65
2019-05-05T00:05:26.794Z,1.60
2019-05-05T00:07:55.665Z,1.77
2019-05-05T00:10:41.769Z,1.70
2019-05-05T00:13:15.024Z,1.87
2019-05-05T00:16:04.703Z,2.12
2019-05-05T00:18:34.664Z,1.70
2019-05-05T00:21:04.614Z,1.67
2019-05-05T00:23:34.535Z,1.72
2019-05-05T00:26:04.417Z,2.08
2019-05-05T00:28:35.276Z,1.87
2019-05-05T00:31:05.162Z,1.90
2019-05-05T00:33:34.419Z,1.87
2019-05-05T00:36:07.060Z,1.92
2019-05-05T00:38:35.194Z,1.92
2019-05-05T00:41:05.446Z,2.20
2019-05-05T00:43:35.343Z,2.33
2019-05-05T00:46:05.716Z,1.95
2019-05-05T00:48:35.908Z,1.70
2019-05-05T00:51:06.423Z,1.52
2019-05-05T00:53:36.525Z,1.98
2019-05-05T00:56:05.193Z,2.05
2019-05-05T00:58:35.459Z,2.25
2019-05-05T01:01:24.773Z,2.52
2019-05-05T01:03:54.644Z,2.60
2019-05-05T01:06:26.395Z,2.50
2019-05-05T01:08:55.144Z,2.20
2019-05-05T01:11:25.106Z,2.25
2019-05-05T01:13:54.694Z,1.75
2019-05-05T01:16:24.745Z,1.72
2019-05-05T01:18:55.328Z,1.90
2019-05-05T01:21:24.551Z,2.35
2019-05-05T01:23:54.752Z,2.05
2019-05-05T01:26:24.893Z,2.30
2019-05-05T01:28:53.887Z,2.25
2019-05-05T01:31:25.145Z,1.92
2019-05-05T01:34:11.404Z,2.00
2019-05-05T01:36:40.183Z,2.10
2019-05-05T01:39:22.395Z,2.15
2019-05-05T01:41:54.287Z,1.80
2019-05-05T01:44:24.700Z,2.10
2019-05-05T01:46:55.084Z,1.98
2019-05-05T01:49:25.251Z,2.15
2019-05-05T01:51:55.488Z,2.12
2019-05-05T01:54:24.956Z,2.30
2019-05-05T01:56:55.373Z,2.03
2019-05-05T01:59:25.283Z,2.50
2019-05-05T02:01:55.082Z,1.98
2019-05-05T02:04:25.259Z,2.62
2019-05-05T02:06:54.954Z,1.95
2019-05-05T02:09:24.964Z,2.55
2019-05-05T02:11:54.688Z,2.67
2019-05-05T02:14:24.652Z,2.75
2019-05-05T02:16:54.586Z,2.17
2019-05-05T02:19:25.074Z,2.10
2019-05-05T02:21:54.926Z,1.87
2019-05-05T02:24:25.137Z,1.75
2019-05-05T02:26:54.563Z,3.02
2019-05-05T02:29:25.684Z,2.35
2019-05-05T02:31:59.111Z,2.05
2019-05-05T02:34:32.182Z,2.02
2019-05-05T02:37:00.746Z,2.30
2019-05-05T02:39:29.268Z,2.72
2019-05-05T02:41:58.620Z,2.60
2019-05-05T02:44:28.230Z,2.22
2019-05-05T02:47:16.557Z,2.27
2019-05-05T02:49:45.700Z,1.87
2019-05-05T02:52:15.296Z,2.35
2019-05-05T02:54:44.307Z,2.22
2019-05-05T02:57:15.686Z,2.40
2019-05-05T02:59:46.328Z,2.30
2019-05-05T03:02:21.030Z,2.70
2019-05-05T03:04:50.598Z,1.98
2019-05-05T03:07:21.064Z,2.30
2019-05-05T03:09:54.544Z,2.47
2019-05-05T03:12:24.944Z,2.10
2019-05-05T03:14:56.504Z,2.75
2019-05-05T03:17:25.950Z,2.22
2019-05-05T03:19:56.004Z,2.70
2019-05-05T03:22:25.752Z,2.17
2019-05-05T03:24:54.517Z,2.47
2019-05-05T03:27:23.980Z,2.52
2019-05-05T03:29:53.537Z,2.10
2019-05-05T03:32:25.281Z,2.13
2019-05-05T03:34:53.668Z,2.65
2019-05-05T03:37:24.825Z,2.10
2019-05-05T03:39:55.470Z,2.40
2019-05-05T03:42:36.140Z,2.57
2019-05-05T03:45:10.350Z,2.60
2019-05-05T03:47:39.198Z,2.37
2019-05-05T03:50:07.817Z,2.17
2019-05-05T03:52:36.932Z,2.20
2019-05-05T03:55:07.591Z,2.60
2019-05-05T03:57:36.382Z,2.65
2019-05-05T04:00:07.789Z,2.67
2019-05-05T04:02:44.592Z,2.77
2019-05-05T04:05:15.416Z,3.07
2019-05-05T04:07:44.204Z,2.45
2019-05-05T04:10:14.052Z,2.50
2019-05-05T04:12:43.480Z,2.77
2019-05-05T04:15:14.215Z,2.60
2019-05-05T04:17:44.522Z,2.65
2019-05-05T04:20:20.953Z,2.50
2019-05-05T04:22:49.422Z,3.20
2019-05-05T04:25:19.761Z,2.98
2019-05-05T04:27:48.476Z,2.92
2019-05-05T04:30:16.994Z,2.80
2019-05-05T04:32:46.969Z,2.87
2019-05-05T04:35:15.829Z,3.20
2019-05-05T04:37:44.702Z,2.77
2019-05-05T04:40:17.561Z,2.87
2019-05-05T04:42:46.019Z,2.80
2019-05-05T04:45:15.079Z,2.90
2019-05-05T04:47:54.141Z,3.10
2019-05-05T04:50:39.873Z,2.98
2019-05-05T04:53:09.961Z,3.37
2019-05-05T04:55:38.801Z,2.80
2019-05-05T04:58:09.399Z,2.92
2019-05-05T05:00:38.217Z,3.40
2019-05-05T05:03:26.154Z,2.55
2019-05-05T05:05:56.679Z,2.90
2019-05-05T05:08:25.558Z,3.20
2019-05-05T05:10:54.402Z,3.02
2019-05-05T05:13:24.435Z,2.62
2019-05-05T05:15:53.972Z,2.55
2019-05-05T05:18:24.027Z,3.15
2019-05-05T05:20:54.814Z,3.52
2019-05-05T05:23:24.635Z,2.80
2019-05-05T05:25:54.550Z,2.12
2019-05-05T05:28:23.711Z,3.30
2019-05-05T05:30:54.336Z,2.83
2019-05-05T05:33:23.880Z,3.42
2019-05-05T05:35:54.632Z,2.85
2019-05-05T05:38:24.216Z,3.35
2019-05-05T05:40:54.584Z,3.47
2019-05-05T05:43:30.484Z,3.58
2019-05-05T05:46:06.472Z,4.15
2019-05-05T05:48:45.070Z,3.17
2019-05-05T05:51:15.182Z,3.90
2019-05-05T05:53:44.016Z,3.90
2019-05-05T05:56:13.499Z,3.72
2019-05-05T05:58:44.204Z,3.47
2019-05-05T06:01:14.707Z,3.30
2019-05-05T06:03:44.353Z,3.80
2019-05-05T06:06:13.804Z,4.08
2019-05-05T06:08:44.178Z,4.30
2019-05-05T06:11:13.673Z,3.83
2019-05-05T06:13:44.452Z,3.72
2019-05-05T06:16:14.458Z,3.80
2019-05-05T06:18:43.690Z,4.28
2019-05-05T06:21:13.733Z,4.20
2019-05-05T06:23:43.694Z,3.87
2019-05-05T06:26:14.930Z,4.50
2019-05-05T06:28:44.692Z,4.25
2019-05-05T06:31:14.845Z,4.92
2019-05-05T06:33:43.798Z,3.87
2019-05-05T06:36:14.157Z,3.75
2019-05-05T06:38:43.714Z,4.35
2019-05-05T06:41:19.949Z,4.10
2019-05-05T06:44:06.584Z,3.58
2019-05-05T06:46:53.716Z,3.40
2019-05-05T06:49:23.809Z,3.90
2019-05-05T06:51:54.698Z,3.72
2019-05-05T06:54:24.129Z,4.60
2019-05-05T06:56:53.885Z,3.62
2019-05-05T06:59:24.278Z,3.35
2019-05-05T07:01:53.668Z,4.17
2019-05-05T07:04:24.400Z,3.45
2019-05-05T07:06:56.683Z,3.83
2019-05-05T07:09:24.467Z,3.98
2019-05-05T07:11:54.114Z,2.92
2019-05-05T07:14:23.643Z,4.12
2019-05-05T07:16:54.351Z,4.25
2019-05-05T07:19:23.943Z,3.98
2019-05-05T07:21:53.831Z,3.08
2019-05-05T07:24:23.903Z,4.17
2019-05-05T07:26:54.107Z,3.10
2019-05-05T07:29:23.892Z,3.00
2019-05-05T07:31:54.587Z,3.45
2019-05-05T07:34:24.540Z,3.80
2019-05-05T07:36:54.856Z,3.52
2019-05-05T07:39:23.856Z,2.85
2019-05-05T07:41:54.168Z,3.10
2019-05-05T07:44:29.111Z,2.65
2019-05-05T07:46:54.332Z,3.42
2019-05-05T07:49:24.353Z,2.58
2019-05-05T07:51:54.743Z,2.70
2019-05-05T07:54:23.796Z,3.17
2019-05-05T07:56:53.827Z,2.40
2019-05-05T07:59:23.836Z,2.70
2019-05-05T08:01:54.838Z,2.10
2019-05-05T08:04:24.631Z,2.62
2019-05-05T08:06:53.873Z,2.42
2019-05-05T08:09:24.792Z,3.25
2019-05-05T08:11:54.211Z,3.10
2019-05-05T08:14:24.608Z,2.50
2019-05-05T08:17:11.036Z,3.17
2019-05-05T08:19:46.948Z,2.67
2019-05-05T08:22:15.498Z,2.67
2019-05-05T08:24:57.847Z,2.90
2019-05-05T08:27:34.017Z,3.02
2019-05-05T08:30:07.392Z,3.22
2019-05-05T08:32:37.867Z,2.55
2019-05-05T08:35:07.993Z,3.77
2019-05-05T08:37:36.517Z,2.47
2019-05-05T08:40:07.759Z,2.90
2019-05-05T08:42:36.339Z,2.50
2019-05-05T08:45:05.839Z,2.40
2019-05-05T08:47:34.881Z,2.85
2019-05-05T08:50:05.713Z,3.05
2019-05-05T08:52:34.333Z,2.50
2019-05-05T08:55:04.668Z,3.25
2019-05-05T08:57:34.103Z,3.35
2019-05-05T09:00:04.912Z,2.40
2019-05-05T09:02:36.021Z,2.37
2019-05-05T09:05:05.075Z,2.98
2019-05-05T09:07:33.875Z,2.65
2019-05-05T09:10:03.894Z,2.33
2019-05-05T09:12:33.894Z,2.50
2019-05-05T09:15:04.459Z,2.55
2019-05-05T09:17:33.777Z,2.70
2019-05-05T09:20:04.564Z,2.17
2019-05-05T09:22:34.805Z,2.45
2019-05-05T09:25:13.692Z,2.90
2019-05-05T09:27:44.312Z,3.05
2019-05-05T09:30:15.323Z,2.10
2019-05-05T09:32:45.065Z,2.80
2019-05-05T09:35:14.051Z,1.92
2019-05-05T09:37:44.381Z,2.47
2019-05-05T09:40:16.199Z,2.35
2019-05-05T09:42:45.270Z,2.37
2019-05-05T09:45:14.078Z,1.92
2019-05-05T09:47:44.960Z,2.25
2019-05-05T09:50:14.464Z,1.72
2019-05-05T09:52:44.362Z,1.92
2019-05-05T09:55:13.885Z,2.50
2019-05-05T09:57:44.936Z,2.25
2019-05-05T10:00:15.476Z,2.00
2019-05-05T10:02:44.362Z,2.22
2019-05-05T10:05:15.779Z,2.17
2019-05-05T10:07:44.314Z,2.20
2019-05-05T10:10:14.213Z,1.77
2019-05-05T10:12:47.086Z,2.60
2019-05-05T10:15:15.970Z,2.37
2019-05-05T10:17:45.940Z,2.30
2019-05-05T10:20:16.326Z,3.00
2019-05-05T10:22:45.072Z,2.05
2019-05-05T10:25:34.157Z,2.87
2019-05-05T10:28:04.244Z,1.90
2019-05-05T10:30:33.932Z,2.35
2019-05-05T10:33:03.779Z,2.65
2019-05-05T10:35:34.440Z,2.35
2019-05-05T10:38:03.427Z,3.95
2019-05-05T10:40:35.497Z,2.35
2019-05-05T10:43:04.642Z,2.05
2019-05-05T10:45:33.519Z,2.50
2019-05-05T10:48:03.888Z,3.08
2019-05-05T10:50:34.145Z,2.08
2019-05-05T10:53:04.548Z,1.87
2019-05-05T10:55:34.683Z,2.45
2019-05-05T10:58:03.840Z,2.47
2019-05-05T11:00:38.200Z,3.47
2019-05-05T11:03:06.673Z,2.30
2019-05-05T11:05:35.645Z,2.25
2019-05-05T11:08:06.081Z,1.72
2019-05-05T11:10:35.469Z,2.52
2019-05-05T11:13:04.349Z,2.62
2019-05-05T11:15:33.531Z,3.05
2019-05-05T11:18:03.977Z,2.67
2019-05-05T11:20:34.084Z,2.83
2019-05-05T11:23:04.866Z,3.40
2019-05-05T11:25:33.858Z,2.33
2019-05-05T11:28:04.514Z,2.87
2019-05-05T11:30:38.062Z,3.02
2019-05-05T11:33:24.755Z,2.90
2019-05-05T11:36:06.909Z,2.62
2019-05-05T11:38:35.409Z,2.35
2019-05-05T11:41:04.934Z,2.25
2019-05-05T11:43:33.962Z,2.65
2019-05-05T11:46:02.565Z,2.27
2019-05-05T11:48:31.071Z,3.00
2019-05-05T11:50:59.611Z,3.27
2019-05-05T11:53:28.186Z,2.87
2019-05-05T11:55:56.787Z,2.65
2019-05-05T11:58:27.191Z,2.95
2019-05-05T12:00:55.767Z,2.25
2019-05-05T12:03:24.433Z,2.62
2019-05-05T12:05:53.449Z,2.77
2019-05-05T12:08:23.841Z,2.05
2019-05-05T12:10:57.117Z,1.70
2019-05-05T12:13:25.784Z,2.52
2019-05-05T12:15:57.489Z,2.33
2019-05-05T12:18:26.092Z,2.65
2019-05-05T12:20:54.568Z,2.45
2019-05-05T12:23:23.089Z,3.15
2019-05-05T12:25:57.395Z,2.20
2019-05-05T12:28:30.454Z,2.08
2019-05-05T12:31:18.320Z,2.08
2019-05-05T12:33:47.173Z,2.50
2019-05-05T12:36:15.621Z,2.65
2019-05-05T12:38:44.439Z,2.42
2019-05-05T12:41:14.814Z,3.15
2019-05-05T12:43:44.271Z,1.80
2019-05-05T12:46:24.357Z,1.67
2019-05-05T12:48:54.476Z,1.60
2019-05-05T12:51:23.618Z,1.95
2019-05-05T12:53:53.966Z,2.15
2019-05-05T12:56:23.829Z,1.92
2019-05-05T12:58:54.558Z,2.20
2019-05-05T13:01:30.338Z,1.80
2019-05-05T13:03:59.245Z,2.30
2019-05-05T13:06:27.785Z,2.22
2019-05-05T13:08:56.517Z,1.77
2019-05-05T13:11:25.510Z,2.30
2019-05-05T13:13:54.651Z,1.87
2019-05-05T13:16:25.214Z,2.65
2019-05-05T13:18:54.016Z,2.17
2019-05-05T13:21:36.464Z,2.47
2019-05-05T13:24:07.023Z,1.62
2019-05-05T13:26:46.003Z,2.40
2019-05-05T13:29:15.595Z,2.27
2019-05-05T13:31:44.344Z,2.10
2019-05-05T13:34:13.785Z,2.00
2019-05-05T13:36:44.111Z,2.55
2019-05-05T13:39:14.470Z,2.40
2019-05-05T13:41:48.027Z,2.17
2019-05-05T13:44:20.171Z,2.55
2019-05-05T13:46:49.037Z,2.17
2019-05-05T13:49:19.197Z,1.70
2019-05-05T13:51:47.646Z,1.90
2019-05-05T13:54:16.462Z,1.92
2019-05-05T13:56:45.518Z,1.65
2019-05-05T13:59:14.849Z,1.62
2019-05-05T14:01:44.821Z,2.25
2019-05-05T14:04:13.549Z,1.92
2019-05-05T14:06:44.453Z,2.27
2019-05-05T14:09:13.841Z,2.33
2019-05-05T14:11:44.544Z,1.95
2019-05-05T14:14:13.821Z,2.05
2019-05-05T14:16:44.699Z,2.12
2019-05-05T14:19:14.583Z,2.47
2019-05-05T14:21:44.633Z,2.33
2019-05-05T14:24:29.122Z,2.20
2019-05-05T14:27:00.382Z,1.80
2019-05-05T14:29:46.685Z,1.67
2019-05-05T14:32:17.130Z,2.37
2019-05-05T14:34:47.509Z,1.98
2019-05-05T14:37:25.768Z,2.25
2019-05-05T14:39:54.918Z,2.20
2019-05-05T14:42:24.961Z,2.35
2019-05-05T14:44:54.573Z,2.15
2019-05-05T14:47:24.458Z,2.30
2019-05-05T14:49:54.005Z,2.12
2019-05-05T14:52:24.584Z,2.08
2019-05-05T14:54:54.305Z,2.05
2019-05-05T14:57:24.919Z,1.70
2019-05-05T14:59:54.018Z,2.02
2019-05-05T15:02:24.276Z,2.22
2019-05-05T15:04:54.920Z,2.25
2019-05-05T15:07:25.537Z,2.40
2019-05-05T15:09:58.405Z,2.10
2019-05-05T15:12:34.320Z,2.35
2019-05-05T15:15:04.824Z,2.15
2019-05-05T15:17:34.200Z,2.47
2019-05-05T15:20:02.713Z,2.17
2019-05-05T15:22:31.465Z,2.05
2019-05-05T15:24:59.935Z,1.70
2019-05-05T15:27:28.391Z,2.22
2019-05-05T15:29:58.041Z,2.85
2019-05-05T15:32:26.530Z,2.15
2019-05-05T15:34:57.915Z,1.70
2019-05-05T15:37:26.836Z,1.70
2019-05-05T15:39:55.315Z,2.15
2019-05-05T15:42:23.761Z,2.20
2019-05-05T15:44:54.369Z,2.20
2019-05-05T15:47:23.628Z,1.82
2019-05-05T15:49:53.347Z,2.27
2019-05-05T15:52:24.320Z,2.10
2019-05-05T15:54:53.975Z,2.52
2019-05-05T15:57:24.141Z,2.10
2019-05-05T15:59:54.361Z,2.20
2019-05-05T16:02:24.015Z,2.42
2019-05-05T16:04:54.071Z,2.10
2019-05-05T16:07:24.241Z,2.58
2019-05-05T16:09:53.736Z,1.80
2019-05-05T16:12:34.015Z,2.30
2019-05-05T16:15:00.613Z,2.52
2019-05-05T16:17:33.677Z,2.30
2019-05-05T16:20:06.690Z,2.58
2019-05-05T16:22:43.729Z,2.50
2019-05-05T16:25:14.231Z,3.08
2019-05-05T16:27:44.633Z,2.45
2019-05-05T16:30:15.699Z,1.80
2019-05-05T16:32:44.178Z,1.85
2019-05-05T16:35:14.515Z,2.52
2019-05-05T16:37:43.289Z,2.12
2019-05-05T16:40:14.433Z,2.15
2019-05-05T16:42:43.829Z,1.70
2019-05-05T16:45:16.243Z,2.12
2019-05-05T16:47:44.490Z,2.08
2019-05-05T16:50:13.699Z,2.08
2019-05-05T16:52:59.351Z,2.10
2019-05-05T16:55:34.422Z,1.60
2019-05-05T16:58:04.074Z,1.47
2019-05-05T17:00:34.580Z,1.87
2019-05-05T17:03:04.201Z,1.80
2019-05-05T17:05:34.491Z,1.87
2019-05-05T17:08:04.539Z,2.15
2019-05-05T17:10:34.226Z,2.10
2019-05-05T17:13:04.673Z,2.17
2019-05-05T17:15:37.644Z,1.98
2019-05-05T17:18:33.054Z,2.22
2019-05-05T17:21:00.362Z,2.20
2019-05-05T17:23:29.146Z,1.90
2019-05-05T17:25:59.137Z,2.40
2019-05-05T17:28:27.948Z,2.25
2019-05-05T17:30:56.730Z,2.05
2019-05-05T17:33:26.427Z,2.40
2019-05-05T17:35:55.438Z,2.12
2019-05-05T17:38:24.446Z,2.25
2019-05-05T17:40:59.284Z,2.30
2019-05-05T17:43:34.046Z,2.00
2019-05-05T17:46:16.423Z,1.90
2019-05-05T17:49:15.113Z,1.98
2019-05-05T17:51:45.203Z,2.15
2019-05-05T17:54:30.429Z,2.00
2019-05-05T17:57:00.662Z,1.65
2019-05-05T17:59:29.189Z,2.12
2019-05-05T18:01:59.199Z,1.98
2019-05-05T18:04:30.099Z,2.15
2019-05-05T18:07:00.193Z,2.45
2019-05-05T18:09:34.432Z,2.30
2019-05-05T18:12:13.896Z,2.15
2019-05-05T18:14:44.482Z,2.20
2019-05-05T18:17:14.539Z,1.55
2019-05-05T18:19:43.588Z,2.50
2019-05-05T18:22:13.878Z,2.22
2019-05-05T18:24:44.428Z,2.72
2019-05-05T18:27:14.075Z,2.12
2019-05-05T18:29:43.613Z,2.12
2019-05-05T18:32:13.857Z,3.50
2019-05-05T18:34:42.451Z,2.40
2019-05-05T18:37:11.298Z,2.52
2019-05-05T18:39:41.301Z,2.37
2019-05-05T18:42:13.937Z,3.35
2019-05-05T18:44:50.975Z,2.67
2019-05-05T18:47:20.467Z,4.30
2019-05-05T18:49:50.245Z,3.47
2019-05-05T18:52:18.706Z,2.50
2019-05-05T18:54:47.152Z,2.40
2019-05-05T18:57:16.574Z,3.85
2019-05-05T18:59:45.114Z,2.90
2019-05-05T19:02:15.866Z,2.40
2019-05-05T19:04:56.722Z,2.15
2019-05-05T19:07:28.282Z,2.17
2019-05-05T19:09:57.162Z,2.37
2019-05-05T19:12:27.037Z,2.27
2019-05-05T19:14:58.176Z,1.70
2019-05-05T19:17:28.628Z,2.50
2019-05-05T19:19:58.611Z,2.12
2019-05-05T19:22:30.036Z,2.10
2019-05-05T19:25:00.193Z,1.60
2019-05-05T19:27:28.658Z,2.15
2019-05-05T19:29:57.403Z,2.17
2019-05-05T19:32:25.860Z,2.10
2019-05-05T19:34:54.807Z,2.25
2019-05-05T19:37:24.013Z,2.33
2019-05-05T19:39:52.576Z,2.12
2019-05-05T19:42:21.130Z,2.08
2019-05-05T19:44:54.701Z,2.40
2019-05-05T19:47:34.063Z,2.10
2019-05-05T19:50:17.099Z,2.15
2019-05-05T19:55:38.699Z,2.05
2019-05-05T19:58:07.210Z,1.95
2019-05-05T20:00:38.578Z,2.25
2019-05-05T20:03:07.532Z,2.30
2019-05-05T20:05:36.740Z,2.40
2019-05-05T20:08:05.814Z,2.37
2019-05-05T20:10:36.085Z,2.58
2019-05-05T20:13:14.247Z,2.17
2019-05-05T20:15:44.377Z,2.72
2019-05-05T20:18:14.248Z,2.77
2019-05-05T20:20:45.368Z,3.05
2019-05-05T20:23:14.872Z,2.80
2019-05-05T20:25:44.795Z,3.45
2019-05-05T20:28:14.529Z,2.45
2019-05-05T20:30:43.290Z,2.77
2019-05-05T20:33:16.003Z,2.67
2019-05-05T20:35:49.173Z,2.67
2019-05-05T20:38:21.085Z,3.15
2019-05-05T20:41:08.185Z,2.83
2019-05-05T20:43:48.423Z,2.98
2019-05-05T20:46:19.384Z,3.55
2019-05-05T20:48:54.251Z,2.22
2019-05-05T20:51:25.266Z,3.15
2019-05-05T20:54:06.071Z,3.33
2019-05-05T20:56:35.130Z,2.77
2019-05-05T20:59:04.589Z,2.72
2019-05-05T21:01:34.102Z,2.77
2019-05-05T21:04:05.813Z,3.02
2019-05-05T21:06:34.325Z,3.40
2019-05-05T21:09:04.327Z,2.33
2019-05-05T21:11:33.699Z,3.35
2019-05-05T21:14:04.010Z,2.58
2019-05-05T21:16:34.295Z,2.60
2019-05-05T21:19:04.579Z,3.10
2019-05-05T21:21:34.767Z,3.12
2019-05-05T21:24:04.218Z,2.15
2019-05-05T21:26:46.030Z,2.85
2019-05-05T21:29:15.184Z,3.25
2019-05-05T21:31:43.956Z,2.75
2019-05-05T21:34:14.001Z,2.70
2019-05-05T21:36:44.854Z,3.10
2019-05-05T21:39:14.852Z,2.62
2019-05-05T21:41:43.926Z,2.83
2019-05-05T21:44:14.458Z,3.33
2019-05-05T21:46:43.726Z,3.12
2019-05-05T21:49:14.107Z,3.30
2019-05-05T21:51:47.336Z,3.45
2019-05-05T21:54:26.778Z,3.30
2019-05-05T21:57:04.387Z,3.37
2019-05-05T21:59:33.740Z,3.40
2019-05-05T22:02:04.742Z,3.05
2019-05-05T22:04:33.841Z,2.42
2019-05-05T22:07:03.759Z,2.92
2019-05-05T22:09:32.747Z,2.30
2019-05-05T22:12:04.059Z,3.42
2019-05-05T22:14:34.130Z,2.58
2019-05-05T22:17:04.137Z,2.80
2019-05-05T22:19:41.691Z,3.20
2019-05-05T22:22:12.250Z,3.33
2019-05-05T22:24:41.018Z,3.62
2019-05-05T22:27:09.968Z,3.10
2019-05-05T22:29:38.448Z,3.50
2019-05-05T22:32:06.897Z,3.58
2019-05-05T22:34:35.744Z,3.42
2019-05-05T22:37:08.902Z,2.80
2019-05-05T22:39:35.200Z,3.52
2019-05-05T22:42:05.112Z,3.58
2019-05-05T22:44:34.096Z,3.58
2019-05-05T22:47:04.655Z,4.00
2019-05-05T22:49:33.427Z,3.42
2019-05-05T22:52:03.789Z,3.90
2019-05-05T22:54:33.668Z,4.00
2019-05-05T22:57:04.441Z,3.35
2019-05-05T22:59:33.139Z,3.70
2019-05-05T23:02:03.815Z,3.15
2019-05-05T23:04:49.765Z,3.17
2019-05-05T23:07:25.603Z,3.33
2019-05-05T23:09:59.523Z,3.77
2019-05-05T23:12:30.132Z,4.05
2019-05-05T23:14:58.662Z,3.52
2019-05-05T23:17:34.021Z,3.08
2019-05-05T23:20:04.843Z,3.65
2019-05-05T23:22:51.390Z,3.70
2019-05-05T23:25:30.185Z,3.50
2019-05-05T23:27:59.018Z,3.90
2019-05-05T23:30:38.572Z,3.70
2019-05-05T23:32:58.353Z,3.95
2019-05-05T23:35:27.127Z,3.52
2019-05-05T23:37:55.939Z,3.77
2019-05-05T23:40:26.768Z,4.47
2019-05-05T23:42:55.973Z,3.20
2019-05-05T23:45:25.113Z,3.00
2019-05-05T23:47:54.745Z,3.42
2019-05-05T23:50:24.373Z,4.20
2019-05-05T23:52:54.533Z,3.60
2019-05-05T23:55:23.953Z,5.00
2019-05-05T23:57:54.645Z,3.00
